Prince Rupert Airport
CYPR : rendu visible

Aérodrome :











RETROUVEZ-NOUS SUR...

 
LOGIN :

S'inscrire | Disclaimer

   EN    FR    IT 

 









Légende :    VFR   VFR Marginal   IFR   IFR Intensif   IFR Très Intensif
Visi : 
Plafond : 
>= 8 km
>= 3000ft
5 à 8 km
1000 à 3000 ft
1500m à 5 km
500 à 1000 ft
800 à 1500m
200 à 500 ft
< 800m
< 200 ft
Symboles :   Orages  Brouillard  Fortes neiges  Fortes précipitations  Vent > 20 kt






- Altitude de l'aérodrome : 116 ft
- Code IATA : YPR


CYPR - Prince Rupert

DERNIER METAR :
  • 110031Z AUTO 27003KT 220V310 9SM FEW040 SCT050 BKN055 OVC074 14/11 A3019 RMK SLP225

METARs EXPIRÉS :
  • 110019Z AUTO 27004KT 220V290 9SM -RA SCT040 BKN049 OVC090 14/10 A3019 RMK SLP225
  • 110000Z AUTO 22005KT 190V290 9SM SCT042 BKN085 15/10 A3019 RMK SLP227
  • 102300Z AUTO 23004KT 190V280 9SM BKN075 BKN086 14/09 A3021 RMK SLP231
  • 102200Z AUTO 00000KT 9SM OVC070 14/09 A3022 RMK SLP235

TAF TAF CYPR
Valide du 11 à 01h jusqu'au 11 à 13h UTC


110038Z 1101/1113 VRB03KT P6SM FEW020 SCT050 BKN080
TEMPO 1101/1105 P6SM -SHRA BKN030 OVC050
FM110500 VRB03KT P6SM SCT015 BKN030
TEMPO 1105/1113 5SM -SHRA BR OVC015 RMK FCST BASED ON AUTO OBS. NXT FCST BY 110700Z
FIR CZVR / Amérique du Nord



MET'MAP, la Météo Aéronautique d'un coup d'oeil ! - Copyright ORBIFLY Décembre 2007 - Disclaimer

ORBIFLY MET'MAP TEAM :

Programmation & Développement : Alexandra Zaïnal
Sur une idée originale de : Baudouin d'Aumeries
Assistance à la programmation : Marc-Olivier Méhu
Soutien technique & logistique : Manuel Goepfert

Contact : metmap@orbifly.com




SOURCES & CREDITS :

   NOAA       Earth
Advisory